NCAR-RAP Real-Time Weather Data

Output produced by METARs form (16 August 2018  19:23 UTC)
found at http://weather.rap.ucar.edu/surface/
 
RJDC 161200Z 03004KT 340V050 9999 FEW020 BKN/// 27/26 Q1009
RJDC 161100Z 05005KT 9999 FEW010 SCT110 BKN/// 27/26 Q1009
RJDC 161000Z 09007KT 9999 -SHRA FEW007 SCT040 BKN050 27/26 Q1009
RJDC 160900Z 07008KT 9999 -SHRA FEW015 SCT040 BKN050 27/26 Q1008
RJDC 160800Z 08010KT 9999 FEW015 SCT040 BKN130 28/26 Q1008
RJDC 160700Z 08011KT 9999 FEW020 SCT030 BKN130 29/26 Q1008
RJDC 160600Z 08013KT 9999 FEW015 SCT020 BKN170 29/26 Q1008
RJDC 160500Z 07011KT 9999 FEW015 FEW025CB BKN120 BKN/// 29/26 Q1008
RJDC 160425Z 08013KT 9999 TS FEW015 FEW025CB BKN120 BKN/// 32/27 Q1008 RMK 1CU015 1CB025 5AC120 A2978 FBL TS 15KM N STNR
RJDC 160400Z 08012KT 9999 TS FEW015 FEW025CB BKN120 BKN/// 29/26 Q1008
RJDC 160300Z 08014KT 9999 FEW015 SCT110 BKN/// 29/26 Q1009
RJDC 160200Z 08017KT 9999 FEW007 SCT015 BKN/// 29/26 Q1009
RJDC 160100Z 07014KT 9999 FEW007 SCT090 BKN120 28/26 Q1009
RJDC 160000Z 08013KT 9999 FEW008 SCT015 BKN120 27/26 Q1008
RJDC 152300Z 07012KT 9999 FEW008 SCT090 BKN120 27/26 Q1008
RJDC 152200Z 07009KT 9999 FEW007 BKN130 BKN/// 26/26 Q1008
RJDC 152130Z 06010KT 9999 FEW006 SCT100 BKN140 26/26 Q1007
RJDC 151200Z 11015KT 9999 FEW006 SCT050 BKN090 27/26 Q1008
RJDC 151100Z 11016KT 9999 FEW006 SCT035 BKN130 26/26 Q1008
RJDC 151000Z 10012KT 9999 -SHRA FEW010 SCT035 BKN050 27/26 Q1007
RJDC 150900Z 10019KT 9999 FEW006 SCT030 BKN050 27/26 Q1007
RJDC 150800Z 10022KT 9999 FEW010 SCT035 BKN070 27/26 Q1007
RJDC 150720Z 10021KT 9999 -SHRA FEW010 FEW030CB SCT040 BKN080 27/26 Q1007 RMK 1CU010 1CB030 3CU040 6AC080 A2975 CB 20KM W MOV N
RJDC 150700Z 10021KT 9999 TS VCSH FEW010 SCT025 FEW030CB BKN070 27/26 Q1007
RJDC 150600Z 10019KT 9999 FEW010 SCT040 BKN080 28/26 Q1007
RJDC 150500Z 09019KT 9999 FEW010 BKN080 BKN140 28/26 Q1008
RJDC 150400Z 10014KT 9999 FEW010 SCT100 BKN/// 29/26 Q1008
RJDC 150300Z 10019KT 9999 FEW010 SCT130 BKN/// 28/26 Q1008
RJDC 150200Z 10018KT 9999 VCSH FEW010 BKN080 BKN120 28/26 Q1008
RJDC 150100Z 11021KT 9999 FEW008 SCT120 BKN/// 27/26 Q1008
RJDC 150000Z 11022KT 9999 VCSH FEW008 SCT015 BKN140 27/26 Q1008
RJDC 142300Z 11023KT 9999 FEW010 SCT015 BKN020 28/26 Q1008
RJDC 142200Z 09027KT 9999 FEW010 SCT015 BKN020 27/26 Q1007
RJDC 142130Z 09025KT 9999 FEW015 SCT025 BKN/// 28/26 Q1006
RJDC 141200Z 07009KT 9999 FEW030 SCT/// 29/26 Q1009
RJDC 141100Z 07009KT 9999 FEW030 SCT/// 29/26 Q1009
RJDC 141000Z 12007KT 9999 FEW030 SCT/// 29/26 Q1008
RJDC 140900Z 11010KT 9999 FEW020 SCT/// 30/26 Q1008
RJDC 140800Z 09014KT 9999 FEW020 SCT/// 31/26 Q1008